Time;durP1;ratioP1;P1;durP2;ratioP2;P2;SDS_P1;SDS_P2;PMS_P1;PMS_P2;Temp;Humidity;BMP_temperature;BMP_pressure;BME280_temperature;BME280_humidity;BME280_pressure;Samples;Min_cycle;Max_cycle;Signal;HPM_P1;HPM_P2
2022/03/31 00:00:31;;;;;;;;;;;12.30;99.90;;;;;;5252275;28;19927;-80
2022/03/31 00:03:04;;;;;;;;;;;12.10;99.90;;;;;;5251837;28;19922;-82
2022/03/31 00:05:34;;;;;;;;;;;12.20;99.90;;;;;;5251562;28;19995;-82
2022/03/31 00:08:06;;;;;;;;;;;12.20;99.90;;;;;;5250257;28;19992;-84
2022/03/31 00:10:38;;;;;;;;;;;12.20;99.90;;;;;;5251487;28;19905;-85
2022/03/31 00:13:10;;;;;;;;;;;12.10;99.90;;;;;;5250149;28;20365;-82
2022/03/31 00:15:41;;;;;;;;;;;12.10;99.90;;;;;;5251361;28;19910;-81
2022/03/31 00:18:13;;;;;;;;;;;12.10;99.90;;;;;;5251447;28;20330;-81
2022/03/31 00:20:44;;;;;;;;;;;12.10;99.90;;;;;;5251333;28;20363;-79
2022/03/31 00:23:14;;;;;;;;;;;12.10;99.90;;;;;;5251255;28;19912;-79
2022/03/31 00:25:45;;;;;;;;;;;12.20;99.90;;;;;;5251490;28;19957;-77
2022/03/31 00:28:16;;;;;;;;;;;12.00;99.90;;;;;;5251633;28;19955;-80
2022/03/31 00:30:46;;;;;;;;;;;12.10;99.90;;;;;;5249579;28;19909;-80
2022/03/31 00:33:17;;;;;;;;;;;12.00;99.90;;;;;;5249711;28;19920;-80
2022/03/31 00:35:48;;;;;;;;;;;12.00;99.90;;;;;;5249408;28;19974;-83
2022/03/31 00:38:18;;;;;;;;;;;11.90;99.90;;;;;;5249048;28;20420;-80
2022/03/31 00:40:49;;;;;;;;;;;11.80;99.90;;;;;;5249226;28;19919;-80
2022/03/31 00:43:20;;;;;;;;;;;11.80;99.90;;;;;;5251470;28;19942;-81
2022/03/31 00:45:56;;;;;;;;;;;11.80;99.90;;;;;;5250825;28;19911;-80
2022/03/31 00:48:27;;;;;;;;;;;11.60;99.90;;;;;;5250798;28;20279;-81
2022/03/31 00:50:57;;;;;;;;;;;11.60;99.90;;;;;;5250747;28;19909;-81
2022/03/31 00:53:28;;;;;;;;;;;11.60;99.90;;;;;;5250624;28;19912;-84
2022/03/31 00:56:00;;;;;;;;;;;11.50;99.90;;;;;;5250595;28;19904;-83
2022/03/31 00:58:31;;;;;;;;;;;11.50;99.90;;;;;;5250577;28;19935;-81
2022/03/31 01:01:02;;;;;;;;;;;11.50;99.90;;;;;;5250138;28;20003;-82
2022/03/31 01:03:33;;;;;;;;;;;11.40;99.90;;;;;;5250553;28;20061;-80
2022/03/31 01:06:04;;;;;;;;;;;11.50;99.90;;;;;;5250415;28;19904;-81
2022/03/31 01:08:35;;;;;;;;;;;11.50;99.90;;;;;;5250363;28;19912;-82
2022/03/31 01:11:05;;;;;;;;;;;11.40;99.90;;;;;;5250197;28;19904;-81
2022/03/31 01:13:36;;;;;;;;;;;11.40;99.90;;;;;;5248930;28;19912;-82
2022/03/31 01:16:07;;;;;;;;;;;11.40;99.90;;;;;;5250036;28;20054;-80
2022/03/31 01:18:39;;;;;;;;;;;11.40;99.90;;;;;;5249108;28;19905;-82
2022/03/31 01:21:10;;;;;;;;;;;11.40;99.90;;;;;;5248930;28;19916;-82
2022/03/31 01:23:41;;;;;;;;;;;11.30;99.90;;;;;;5248848;28;20315;-82
2022/03/31 01:26:12;;;;;;;;;;;11.30;99.90;;;;;;5249229;28;19938;-82
2022/03/31 01:28:43;;;;;;;;;;;11.00;99.90;;;;;;5250577;28;19947;-81
2022/03/31 01:31:13;;;;;;;;;;;11.00;99.90;;;;;;5248192;28;20333;-81
2022/03/31 01:33:44;;;;;;;;;;;10.90;99.90;;;;;;5250108;28;19909;-82
2022/03/31 01:36:15;;;;;;;;;;;11.00;99.90;;;;;;5250140;28;19908;-82
2022/03/31 01:38:48;;;;;;;;;;;11.20;99.90;;;;;;5249800;28;19911;-80
2022/03/31 01:41:18;;;;;;;;;;;11.00;99.90;;;;;;5249674;28;19912;-82
2022/03/31 01:43:49;;;;;;;;;;;10.70;99.90;;;;;;5249383;28;19904;-80
2022/03/31 01:46:20;;;;;;;;;;;10.60;99.90;;;;;;5249656;28;19904;-79
2022/03/31 01:48:52;;;;;;;;;;;11.00;99.90;;;;;;5249639;28;19911;-82
2022/03/31 01:51:23;;;;;;;;;;;11.10;99.90;;;;;;5249325;28;19912;-79
2022/03/31 01:53:53;;;;;;;;;;;11.10;99.90;;;;;;5250706;28;19904;-78
2022/03/31 01:56:24;;;;;;;;;;;11.10;99.90;;;;;;5248307;28;19999;-78
2022/03/31 01:58:55;;;;;;;;;;;10.70;99.90;;;;;;5248479;28;20330;-81
2022/03/31 02:01:25;;;;;;;;;;;10.70;99.90;;;;;;5249356;28;20375;-78
2022/03/31 02:03:56;;;;;;;;;;;10.90;99.90;;;;;;5249817;28;19985;-81
2022/03/31 02:06:26;;;;;;;;;;;11.00;99.90;;;;;;5249282;28;20074;-81
2022/03/31 02:08:57;;;;;;;;;;;10.80;99.90;;;;;;5249214;28;19908;-81
2022/03/31 02:11:28;;;;;;;;;;;10.90;99.90;;;;;;5249164;28;20379;-82
2022/03/31 02:13:59;;;;;;;;;;;10.70;99.90;;;;;;5249100;28;19905;-80
2022/03/31 02:16:30;;;;;;;;;;;10.80;99.90;;;;;;5247906;28;19915;-84
2022/03/31 02:19:00;;;;;;;;;;;10.80;99.90;;;;;;5249110;28;19912;-83
2022/03/31 02:21:31;;;;;;;;;;;10.60;99.90;;;;;;5249003;28;19912;-84
2022/03/31 02:24:02;;;;;;;;;;;10.40;99.90;;;;;;5249338;28;19983;-83
2022/03/31 02:26:32;;;;;;;;;;;10.50;99.90;;;;;;5247744;28;19904;-79
2022/03/31 02:29:03;;;;;;;;;;;10.70;99.90;;;;;;5249188;28;20315;-83
2022/03/31 02:31:34;;;;;;;;;;;10.40;99.90;;;;;;5247392;28;19916;-83
2022/03/31 02:34:05;;;;;;;;;;;10.60;99.90;;;;;;5249569;28;19909;-84
2022/03/31 02:36:35;;;;;;;;;;;10.20;99.90;;;;;;5247982;28;20314;-88
2022/03/31 02:39:07;;;;;;;;;;;10.60;99.90;;;;;;5249273;28;19908;-83
2022/03/31 02:41:38;;;;;;;;;;;10.20;99.90;;;;;;5248718;28;19961;-82
2022/03/31 02:44:09;;;;;;;;;;;10.00;99.90;;;;;;5248896;28;19940;-82
2022/03/31 02:46:40;;;;;;;;;;;10.30;99.90;;;;;;5248981;28;19950;-82
2022/03/31 02:49:11;;;;;;;;;;;10.50;99.90;;;;;;5247523;28;19904;-86
2022/03/31 02:51:41;;;;;;;;;;;10.60;99.90;;;;;;5247365;28;19927;-84
2022/03/31 02:57:01;;;;;;;;;;;10.20;99.90;;;;;;5248747;28;19927;-84
2022/03/31 02:59:32;;;;;;;;;;;10.00;99.90;;;;;;5247303;28;19908;-84
2022/03/31 03:02:03;;;;;;;;;;;9.90;99.90;;;;;;5248427;28;19916;-84
2022/03/31 03:04:34;;;;;;;;;;;9.60;99.90;;;;;;5253465;28;19939;-84
2022/03/31 03:07:05;;;;;;;;;;;9.80;99.90;;;;;;5253646;28;19950;-84
2022/03/31 03:09:36;;;;;;;;;;;9.80;99.90;;;;;;5252975;28;19904;-84
2022/03/31 03:12:07;;;;;;;;;;;9.80;99.90;;;;;;5252986;28;19904;-82
2022/03/31 03:14:38;;;;;;;;;;;9.80;99.90;;;;;;5253198;28;19931;-82
2022/03/31 03:17:10;;;;;;;;;;;9.70;99.90;;;;;;5252478;28;19904;-82
2022/03/31 03:19:40;;;;;;;;;;;10.00;99.90;;;;;;5252859;28;19905;-82
2022/03/31 03:22:11;;;;;;;;;;;9.90;99.90;;;;;;5251205;28;19916;-81
2022/03/31 03:24:42;;;;;;;;;;;9.70;99.90;;;;;;5252500;28;19978;-81
2022/03/31 03:27:12;;;;;;;;;;;9.50;99.90;;;;;;5252670;28;19912;-83
2022/03/31 03:29:46;;;;;;;;;;;9.60;99.90;;;;;;5251451;28;19905;-82
2022/03/31 03:32:18;;;;;;;;;;;9.70;99.90;;;;;;5251948;28;19921;-81
2022/03/31 03:34:49;;;;;;;;;;;9.60;99.90;;;;;;5252748;28;19957;-81
2022/03/31 03:37:19;;;;;;;;;;;9.30;99.90;;;;;;5252428;28;19904;-81
2022/03/31 03:39:50;;;;;;;;;;;9.20;99.90;;;;;;5252730;28;19912;-82
2022/03/31 03:42:21;;;;;;;;;;;9.20;99.90;;;;;;5252136;28;19908;-80
2022/03/31 03:44:51;;;;;;;;;;;9.10;99.90;;;;;;5252061;28;19904;-80
2022/03/31 03:47:22;;;;;;;;;;;9.10;99.90;;;;;;5251917;28;19911;-81
2022/03/31 03:49:52;;;;;;;;;;;8.90;99.90;;;;;;5251881;28;19911;-80
2022/03/31 03:52:23;;;;;;;;;;;9.00;99.90;;;;;;5251954;28;19908;-80
2022/03/31 03:54:54;;;;;;;;;;;9.00;99.90;;;;;;5250481;28;19911;-80
2022/03/31 03:57:25;;;;;;;;;;;8.70;99.90;;;;;;5252204;28;19904;-80
2022/03/31 03:59:56;;;;;;;;;;;8.70;99.90;;;;;;5250294;28;19952;-79
2022/03/31 04:02:27;;;;;;;;;;;8.80;99.90;;;;;;5251715;28;20437;-79
2022/03/31 04:04:58;;;;;;;;;;;8.60;99.90;;;;;;5251568;28;20352;-79
2022/03/31 04:07:28;;;;;;;;;;;8.60;99.90;;;;;;5251555;28;19971;-79
2022/03/31 04:09:59;;;;;;;;;;;8.50;99.90;;;;;;5251588;28;19908;-80
2022/03/31 04:12:29;;;;;;;;;;;8.50;99.90;;;;;;5251272;28;19947;-81
2022/03/31 04:15:02;;;;;;;;;;;8.50;99.90;;;;;;5251385;28;20008;-80
2022/03/31 04:17:33;;;;;;;;;;;8.70;99.90;;;;;;5251684;28;20310;-79
2022/03/31 04:20:04;;;;;;;;;;;8.60;99.90;;;;;;5251592;28;19962;-80
2022/03/31 04:22:37;;;;;;;;;;;8.50;99.90;;;;;;5251562;28;19911;-78
2022/03/31 04:25:09;;;;;;;;;;;8.70;99.90;;;;;;5251334;28;19909;-82
2022/03/31 04:27:39;;;;;;;;;;;8.70;99.90;;;;;;5251417;28;19905;-82
2022/03/31 04:30:11;;;;;;;;;;;8.60;99.90;;;;;;5249682;28;19961;-84
2022/03/31 04:32:42;;;;;;;;;;;8.60;99.90;;;;;;5250994;28;20364;-82
2022/03/31 04:35:12;;;;;;;;;;;8.70;99.90;;;;;;5249780;28;19911;-82
2022/03/31 04:37:43;;;;;;;;;;;8.60;99.90;;;;;;5249792;28;19904;-84
2022/03/31 04:40:14;;;;;;;;;;;8.60;99.90;;;;;;5250888;28;20347;-82
2022/03/31 04:42:46;;;;;;;;;;;8.50;99.90;;;;;;5250794;28;19965;-82
2022/03/31 04:45:16;;;;;;;;;;;8.60;99.90;;;;;;5251031;28;19908;-82
2022/03/31 04:47:47;;;;;;;;;;;8.60;99.90;;;;;;5250867;28;19923;-83
2022/03/31 04:50:18;;;;;;;;;;;8.70;99.90;;;;;;5250705;28;19908;-84
2022/03/31 04:52:49;;;;;;;;;;;8.60;99.90;;;;;;5249377;28;19908;-83
2022/03/31 04:55:20;;;;;;;;;;;8.70;99.90;;;;;;5250729;28;19905;-83
2022/03/31 04:57:50;;;;;;;;;;;9.00;99.90;;;;;;5250892;28;19958;-81
2022/03/31 05:00:21;;;;;;;;;;;9.10;99.90;;;;;;5250289;28;20011;-81
2022/03/31 05:02:51;;;;;;;;;;;9.30;99.90;;;;;;5251166;28;20304;-81
2022/03/31 05:05:22;;;;;;;;;;;9.30;99.90;;;;;;5250532;28;19904;-87
2022/03/31 05:07:53;;;;;;;;;;;9.50;99.90;;;;;;5250448;28;19904;-81
2022/03/31 05:10:23;;;;;;;;;;;9.40;99.90;;;;;;5250404;28;19905;-83
2022/03/31 05:12:54;;;;;;;;;;;9.50;99.90;;;;;;5248942;28;19988;-81
2022/03/31 05:15:25;;;;;;;;;;;9.40;99.90;;;;;;5250708;28;19905;-87
2022/03/31 05:17:56;;;;;;;;;;;9.60;99.90;;;;;;5250878;28;20425;-89
2022/03/31 05:20:28;;;;;;;;;;;9.80;99.90;;;;;;5249225;28;19912;-82
2022/03/31 05:22:58;;;;;;;;;;;9.90;99.90;;;;;;5249281;28;20356;-82
2022/03/31 05:25:29;;;;;;;;;;;9.80;99.90;;;;;;5249435;28;20007;-86
2022/03/31 05:28:00;;;;;;;;;;;9.90;99.90;;;;;;5250157;28;19912;-83
2022/03/31 05:30:31;;;;;;;;;;;10.00;99.90;;;;;;5248493;28;20352;-83
2022/03/31 05:33:02;;;;;;;;;;;10.00;99.90;;;;;;5249840;28;19943;-85
2022/03/31 05:35:33;;;;;;;;;;;10.10;99.90;;;;;;5249913;28;19904;-83
2022/03/31 05:38:04;;;;;;;;;;;10.20;99.90;;;;;;5249811;28;20257;-83
2022/03/31 05:40:35;;;;;;;;;;;10.30;99.90;;;;;;5249951;28;19920;-85
2022/03/31 05:43:05;;;;;;;;;;;10.30;99.90;;;;;;5249953;28;19904;-86
2022/03/31 05:45:36;;;;;;;;;;;10.40;99.90;;;;;;5248655;28;19911;-83
2022/03/31 05:48:08;;;;;;;;;;;10.60;99.90;;;;;;5248974;28;19912;-82
2022/03/31 05:50:38;;;;;;;;;;;10.70;99.90;;;;;;5249481;28;19908;-82
2022/03/31 05:53:09;;;;;;;;;;;10.70;99.90;;;;;;5248152;28;20378;-82
2022/03/31 05:55:40;;;;;;;;;;;10.90;99.90;;;;;;5249368;28;19904;-82
2022/03/31 05:58:11;;;;;;;;;;;11.10;99.90;;;;;;5248122;28;19935;-81
2022/03/31 06:00:42;;;;;;;;;;;11.20;99.90;;;;;;5249155;28;19951;-81
2022/03/31 06:03:12;;;;;;;;;;;11.60;99.90;;;;;;5249666;28;19912;-80
2022/03/31 06:05:43;;;;;;;;;;;11.70;99.90;;;;;;5249550;28;20421;-86
2022/03/31 06:08:14;;;;;;;;;;;11.70;99.90;;;;;;5249438;28;19996;-79
2022/03/31 06:10:45;;;;;;;;;;;12.20;99.90;;;;;;5249413;28;19908;-81
2022/03/31 06:13:15;;;;;;;;;;;12.60;99.90;;;;;;5249181;28;20002;-83
2022/03/31 06:15:46;;;;;;;;;;;12.80;99.90;;;;;;5249306;28;20003;-86
2022/03/31 06:18:18;;;;;;;;;;;12.90;99.90;;;;;;5249091;28;19905;-83
2022/03/31 06:20:48;;;;;;;;;;;13.20;99.90;;;;;;5248865;28;20006;-79
2022/03/31 06:23:19;;;;;;;;;;;13.40;99.90;;;;;;5249107;28;20012;-83
2022/03/31 06:25:50;;;;;;;;;;;13.40;99.90;;;;;;5249307;28;19950;-80
2022/03/31 06:28:21;;;;;;;;;;;13.50;99.90;;;;;;5248929;28;19905;-82
2022/03/31 06:30:51;;;;;;;;;;;13.60;99.90;;;;;;5248551;28;19912;-81
2022/03/31 06:33:22;;;;;;;;;;;13.70;99.90;;;;;;5247334;28;19920;-80
2022/03/31 06:35:53;;;;;;;;;;;13.80;99.90;;;;;;5248706;28;19973;-81
2022/03/31 06:38:23;;;;;;;;;;;13.90;99.90;;;;;;5248857;28;19905;-81
2022/03/31 06:41:06;;;;;;;;;;;14.00;99.90;;;;;;5248982;28;19912;-81
2022/03/31 06:43:37;;;;;;;;;;;14.10;99.90;;;;;;5248983;28;19943;-82
2022/03/31 06:46:09;;;;;;;;;;;14.20;99.90;;;;;;5248799;28;19998;-81
2022/03/31 06:48:43;;;;;;;;;;;14.30;99.90;;;;;;5248631;28;19958;-81
2022/03/31 06:51:15;;;;;;;;;;;14.50;99.90;;;;;;5248638;28;19995;-82
2022/03/31 06:53:45;;;;;;;;;;;14.50;99.90;;;;;;5248715;28;19904;-81
2022/03/31 06:56:18;;;;;;;;;;;14.60;99.90;;;;;;5247525;28;20264;-81
2022/03/31 06:58:48;;;;;;;;;;;14.70;99.90;;;;;;5247403;28;20004;-81
2022/03/31 07:01:19;;;;;;;;;;;14.70;99.90;;;;;;5248454;28;20015;-81
2022/03/31 07:03:50;;;;;;;;;;;14.80;99.90;;;;;;5248714;28;20352;-81
2022/03/31 07:06:22;;;;;;;;;;;14.80;99.90;;;;;;5248924;28;19904;-80
2022/03/31 07:08:53;;;;;;;;;;;14.90;99.90;;;;;;5248534;28;19912;-80
2022/03/31 07:11:24;;;;;;;;;;;15.00;99.90;;;;;;5248650;28;19905;-81
2022/03/31 07:13:54;;;;;;;;;;;15.00;99.90;;;;;;5248766;28;20359;-81
2022/03/31 07:16:25;;;;;;;;;;;15.00;99.90;;;;;;5248627;28;19911;-79
2022/03/31 07:18:56;;;;;;;;;;;15.10;99.90;;;;;;5248710;28;19904;-80
2022/03/31 07:21:26;;;;;;;;;;;15.20;99.90;;;;;;5248402;28;20021;-80
2022/03/31 07:23:57;;;;;;;;;;;15.30;99.90;;;;;;5248378;28;19965;-81
2022/03/31 07:26:28;;;;;;;;;;;15.40;99.90;;;;;;5248321;28;19915;-82
2022/03/31 07:28:59;;;;;;;;;;;15.40;99.90;;;;;;5247877;28;19904;-82
2022/03/31 07:31:29;;;;;;;;;;;15.50;99.90;;;;;;5247899;28;20401;-79
2022/03/31 07:34:00;;;;;;;;;;;15.40;99.90;;;;;;5248362;28;20318;-79
2022/03/31 07:36:31;;;;;;;;;;;15.60;99.90;;;;;;5248272;28;20259;-79
2022/03/31 07:39:01;;;;;;;;;;;15.60;99.90;;;;;;5263851;28;19905;-84
2022/03/31 07:41:32;;;;;;;;;;;15.70;99.90;;;;;;5248214;28;20355;-79
2022/03/31 07:44:03;;;;;;;;;;;15.70;99.90;;;;;;5248528;28;19904;-79
2022/03/31 07:46:34;;;;;;;;;;;15.70;99.90;;;;;;5248364;28;19905;-78
2022/03/31 07:49:05;;;;;;;;;;;15.80;99.90;;;;;;5250662;28;20356;-79
2022/03/31 07:51:36;;;;;;;;;;;15.90;99.90;;;;;;5251864;28;19904;-78
2022/03/31 07:54:06;;;;;;;;;;;15.90;99.90;;;;;;5252100;28;19999;-79
2022/03/31 07:56:37;;;;;;;;;;;15.90;99.90;;;;;;5251763;28;20060;-78
2022/03/31 07:59:08;;;;;;;;;;;15.90;99.90;;;;;;5251589;28;19909;-78
2022/03/31 08:01:38;;;;;;;;;;;15.90;99.90;;;;;;5251558;28;19962;-80
2022/03/31 08:04:09;;;;;;;;;;;16.10;99.90;;;;;;5251712;28;19908;-79
2022/03/31 08:06:40;;;;;;;;;;;16.10;99.90;;;;;;5251696;28;19958;-83
2022/03/31 08:09:15;;;;;;;;;;;16.10;99.90;;;;;;5267192;28;19919;-79
2022/03/31 08:11:46;;;;;;;;;;;16.20;99.90;;;;;;5251585;28;19905;-79
2022/03/31 08:14:19;;;;;;;;;;;16.30;99.90;;;;;;5267051;28;19912;-83
2022/03/31 08:16:50;;;;;;;;;;;16.40;99.90;;;;;;5251685;28;20078;-78
2022/03/31 08:19:21;;;;;;;;;;;16.50;99.90;;;;;;5251259;28;20680;-78
2022/03/31 08:21:51;;;;;;;;;;;16.50;99.90;;;;;;5251211;28;19999;-78
2022/03/31 08:24:23;;;;;;;;;;;16.60;99.90;;;;;;5251601;28;19910;-79
2022/03/31 08:26:54;;;;;;;;;;;16.60;99.90;;;;;;5266784;28;20403;-79
2022/03/31 08:29:27;;;;;;;;;;;16.50;99.90;;;;;;5251105;28;20003;-81
2022/03/31 08:32:00;;;;;;;;;;;16.50;99.90;;;;;;5250807;28;19965;-78
2022/03/31 08:34:31;;;;;;;;;;;16.70;99.90;;;;;;5251302;28;19956;-83
2022/03/31 08:37:02;;;;;;;;;;;16.80;99.90;;;;;;5266644;28;19948;-79
2022/03/31 08:39:33;;;;;;;;;;;16.70;99.90;;;;;;5251009;28;19904;-80
2022/03/31 08:42:04;;;;;;;;;;;16.80;99.90;;;;;;5251019;28;19912;-78
2022/03/31 08:44:36;;;;;;;;;;;16.80;99.90;;;;;;5251029;28;19904;-78
2022/03/31 08:47:08;;;;;;;;;;;16.50;99.90;;;;;;5266129;28;19958;-79
2022/03/31 08:49:39;;;;;;;;;;;16.60;99.90;;;;;;5251100;28;19939;-80
2022/03/31 08:52:10;;;;;;;;;;;16.20;99.90;;;;;;5266294;28;19960;-84
2022/03/31 08:54:41;;;;;;;;;;;16.20;99.90;;;;;;5250626;28;19909;-78
2022/03/31 08:57:12;;;;;;;;;;;16.20;99.90;;;;;;5250710;28;20375;-79
2022/03/31 08:59:42;;;;;;;;;;;16.20;99.90;;;;;;5249282;28;19943;-78
2022/03/31 09:02:26;;;;;;;;;;;16.30;99.90;;;;;;5266089;28;19968;-84
2022/03/31 09:05:04;;;;;;;;;;;16.30;99.90;;;;;;5266037;28;19911;-82
2022/03/31 09:07:35;;;;;;;;;;;16.40;99.90;;;;;;5265950;28;19904;-79
2022/03/31 09:10:05;;;;;;;;;;;16.50;99.90;;;;;;5250386;28;20322;-81
2022/03/31 09:12:37;;;;;;;;;;;16.60;99.90;;;;;;5250306;28;19958;-78
2022/03/31 09:15:08;;;;;;;;;;;16.60;99.90;;;;;;5265840;28;20275;-85
2022/03/31 09:17:39;;;;;;;;;;;16.80;99.90;;;;;;5250277;28;20312;-79
2022/03/31 09:20:10;;;;;;;;;;;16.80;99.90;;;;;;5250063;28;19908;-78
2022/03/31 09:22:50;;;;;;;;;;;16.70;99.90;;;;;;5250150;28;19909;-78
2022/03/31 09:25:28;;;;;;;;;;;17.00;99.90;;;;;;5265601;28;19911;-79
2022/03/31 09:28:01;;;;;;;;;;;17.20;99.90;;;;;;5250333;28;19966;-80
2022/03/31 09:30:31;;;;;;;;;;;16.90;99.90;;;;;;5249764;28;19999;-85
2022/03/31 09:33:05;;;;;;;;;;;17.40;99.90;;;;;;5249619;28;20411;-84
2022/03/31 09:35:36;;;;;;;;;;;17.30;99.90;;;;;;5249919;28;20359;-83
2022/03/31 09:38:12;;;;;;;;;;;17.20;99.90;;;;;;5249778;28;19910;-78
2022/03/31 09:40:43;;;;;;;;;;;17.20;99.90;;;;;;5249539;28;19956;-80
2022/03/31 09:43:14;;;;;;;;;;;17.40;99.90;;;;;;5249652;28;19940;-83
2022/03/31 09:45:45;;;;;;;;;;;17.70;99.90;;;;;;5265337;28;19904;-85
2022/03/31 09:48:19;;;;;;;;;;;17.90;99.90;;;;;;5249385;28;20348;-79
2022/03/31 09:50:50;;;;;;;;;;;17.90;99.90;;;;;;5249407;28;19905;-78
2022/03/31 09:53:22;;;;;;;;;;;18.00;99.90;;;;;;5249553;28;20332;-79
2022/03/31 09:55:53;;;;;;;;;;;18.20;99.90;;;;;;5249504;28;19999;-85
2022/03/31 09:58:24;;;;;;;;;;;18.30;99.90;;;;;;5249465;28;19991;-77
2022/03/31 10:00:55;;;;;;;;;;;17.90;99.90;;;;;;5249325;28;20031;-84
2022/03/31 10:03:26;;;;;;;;;;;17.60;99.90;;;;;;5249423;28;20003;-79
2022/03/31 10:05:57;;;;;;;;;;;17.90;99.90;;;;;;5249363;28;20004;-79
2022/03/31 10:08:29;;;;;;;;;;;18.00;99.90;;;;;;5249178;28;19966;-84
2022/03/31 10:11:00;;;;;;;;;;;18.40;99.90;;;;;;5248754;28;19908;-79
2022/03/31 10:13:36;;;;;;;;;;;18.30;99.90;;;;;;5249048;28;20430;-86
2022/03/31 10:16:13;;;;;;;;;;;18.40;99.90;;;;;;5246650;28;19955;-81
2022/03/31 10:18:47;;;;;;;;;;;18.40;99.90;;;;;;5249118;28;19904;-89
2022/03/31 10:21:28;;;;;;;;;;;18.50;99.90;;;;;;5248868;28;19973;-78
2022/03/31 10:26:58;;;;;;;;;;;18.40;99.90;;;;;;5248994;28;19955;-79
2022/03/31 10:29:37;;;;;;;;;;;18.30;99.90;;;;;;5248778;28;20367;-79
2022/03/31 10:32:21;;;;;;;;;;;18.40;99.90;;;;;;5247516;28;20437;-79
2022/03/31 10:34:54;;;;;;;;;;;18.60;99.90;;;;;;5248802;28;20368;-85
2022/03/31 10:37:34;;;;;;;;;;;18.80;99.90;;;;;;5249212;28;19993;-78
2022/03/31 10:40:09;;;;;;;;;;;19.00;99.90;;;;;;5250018;28;20344;-83
2022/03/31 10:42:40;;;;;;;;;;;18.60;99.90;;;;;;5249037;28;19912;-85
2022/03/31 10:45:12;;;;;;;;;;;18.40;99.90;;;;;;5248650;28;20364;-84
2022/03/31 10:47:43;;;;;;;;;;;18.70;99.90;;;;;;5248727;28;20004;-88
2022/03/31 10:50:25;;;;;;;;;;;18.80;99.90;;;;;;5248553;28;19951;-87
2022/03/31 10:53:01;;;;;;;;;;;18.80;99.90;;;;;;5248573;28;19904;-78
2022/03/31 10:55:34;;;;;;;;;;;18.60;99.90;;;;;;5248785;28;19904;-86
2022/03/31 10:58:05;;;;;;;;;;;18.40;99.90;;;;;;5248797;28;19904;-78
2022/03/31 11:00:36;;;;;;;;;;;19.00;99.90;;;;;;5248542;28;19936;-79
2022/03/31 11:03:08;;;;;;;;;;;18.60;99.90;;;;;;5248748;28;19909;-79
2022/03/31 11:05:38;;;;;;;;;;;18.80;99.90;;;;;;5248869;28;20288;-79
2022/03/31 11:08:09;;;;;;;;;;;18.70;99.90;;;;;;5247578;28;19904;-78
2022/03/31 11:10:41;;;;;;;;;;;18.30;99.90;;;;;;5248504;28;20427;-79
2022/03/31 11:13:13;;;;;;;;;;;18.40;99.90;;;;;;5248427;28;19957;-79
2022/03/31 11:15:48;;;;;;;;;;;18.30;99.90;;;;;;5247333;28;20360;-80
2022/03/31 11:18:19;;;;;;;;;;;18.30;99.90;;;;;;5247788;28;19909;-79
2022/03/31 11:21:00;;;;;;;;;;;18.30;99.90;;;;;;5247003;28;19909;-82
2022/03/31 11:23:31;;;;;;;;;;;18.10;99.90;;;;;;5250015;28;20267;-80
2022/03/31 11:26:02;;;;;;;;;;;18.30;99.90;;;;;;5252252;28;19904;-85
2022/03/31 11:28:33;;;;;;;;;;;18.20;99.90;;;;;;5251184;28;20344;-79
2022/03/31 11:31:11;;;;;;;;;;;18.30;99.90;;;;;;5252107;28;19923;-79
2022/03/31 11:33:41;;;;;;;;;;;18.10;99.90;;;;;;5252488;28;19909;-79
2022/03/31 11:36:12;;;;;;;;;;;18.30;99.90;;;;;;5252398;28;19904;-82
2022/03/31 11:38:52;;;;;;;;;;;18.30;99.90;;;;;;5252052;28;19944;-84
2022/03/31 11:41:23;;;;;;;;;;;18.30;99.90;;;;;;5252243;28;20012;-79
2022/03/31 11:43:56;;;;;;;;;;;18.50;99.90;;;;;;5252078;28;19991;-79
2022/03/31 11:46:37;;;;;;;;;;;18.60;99.90;;;;;;5252021;28;19904;-78
2022/03/31 11:49:17;;;;;;;;;;;18.70;99.90;;;;;;5252087;28;19991;-77
2022/03/31 11:51:49;;;;;;;;;;;18.80;99.90;;;;;;5251726;28;19905;-78
2022/03/31 11:54:20;;;;;;;;;;;18.70;99.90;;;;;;5252101;28;19943;-78
2022/03/31 11:57:04;;;;;;;;;;;18.90;99.90;;;;;;5251846;28;19905;-81
2022/03/31 11:59:35;;;;;;;;;;;18.70;99.90;;;;;;5251602;28;20374;-86
2022/03/31 12:02:15;;;;;;;;;;;18.70;99.90;;;;;;5251547;28;19917;-78
2022/03/31 12:04:47;;;;;;;;;;;18.60;99.90;;;;;;5252486;28;19909;-79
2022/03/31 12:07:19;;;;;;;;;;;18.60;99.90;;;;;;5251641;28;19989;-78
2022/03/31 12:09:51;;;;;;;;;;;18.80;99.90;;;;;;5251395;28;19989;-79
2022/03/31 12:12:22;;;;;;;;;;;18.80;99.90;;;;;;5251238;28;19904;-79
2022/03/31 12:14:57;;;;;;;;;;;18.70;99.90;;;;;;5251307;28;20371;-79
2022/03/31 12:17:27;;;;;;;;;;;18.40;99.90;;;;;;5251419;28;19911;-80
2022/03/31 12:19:58;;;;;;;;;;;18.50;99.90;;;;;;5251152;28;19908;-79
2022/03/31 12:22:33;;;;;;;;;;;18.60;99.90;;;;;;5251324;28;20291;-80
2022/03/31 12:25:04;;;;;;;;;;;18.80;99.90;;;;;;5264104;28;19992;-79
2022/03/31 12:27:44;;;;;;;;;;;18.80;99.90;;;;;;5261106;28;19904;-80
2022/03/31 12:30:15;;;;;;;;;;;18.60;99.90;;;;;;5251068;28;19912;-78
2022/03/31 12:32:46;;;;;;;;;;;18.80;99.90;;;;;;5250914;28;19920;-79
2022/03/31 12:35:18;;;;;;;;;;;18.80;99.90;;;;;;5250038;28;19908;-79
2022/03/31 12:37:50;;;;;;;;;;;19.00;99.90;;;;;;5250841;28;20525;-80
2022/03/31 12:40:24;;;;;;;;;;;18.80;99.90;;;;;;5271371;28;20006;-81
2022/03/31 12:43:00;;;;;;;;;;;18.90;99.90;;;;;;5271933;28;19912;-81
2022/03/31 12:45:34;;;;;;;;;;;19.10;99.90;;;;;;5271795;28;19904;-79
2022/03/31 12:48:09;;;;;;;;;;;19.00;99.90;;;;;;5253385;28;19905;-79
2022/03/31 12:50:40;;;;;;;;;;;19.10;99.90;;;;;;5250471;28;19904;-84
2022/03/31 12:53:11;;;;;;;;;;;19.30;99.90;;;;;;5255994;28;19977;-87
2022/03/31 12:55:43;;;;;;;;;;;19.10;99.90;;;;;;5250696;28;19904;-79
2022/03/31 12:58:13;;;;;;;;;;;19.10;99.90;;;;;;5250547;28;20347;-79
2022/03/31 13:00:51;;;;;;;;;;;19.20;99.90;;;;;;5248865;28;19912;-85
2022/03/31 13:03:23;;;;;;;;;;;19.40;99.90;;;;;;5252189;28;20280;-85
2022/03/31 13:05:53;;;;;;;;;;;19.40;99.90;;;;;;5271399;28;19957;-78
2022/03/31 13:08:24;;;;;;;;;;;19.40;99.90;;;;;;5271171;28;20306;-80
2022/03/31 13:10:55;;;;;;;;;;;19.30;99.90;;;;;;5271317;28;19932;-79
2022/03/31 13:13:25;;;;;;;;;;;19.10;99.90;;;;;;5271436;28;20256;-79
2022/03/31 13:15:56;;;;;;;;;;;19.00;99.90;;;;;;5271155;28;19904;-80
2022/03/31 13:18:27;;;;;;;;;;;18.70;99.90;;;;;;5271219;28;19904;-78
2022/03/31 13:20:58;;;;;;;;;;;18.50;99.90;;;;;;5271033;28;19916;-86
2022/03/31 13:23:29;;;;;;;;;;;18.70;99.90;;;;;;5271022;28;20367;-80
2022/03/31 13:25:59;;;;;;;;;;;18.80;99.90;;;;;;5269694;28;19911;-79
2022/03/31 13:28:31;;;;;;;;;;;18.80;99.90;;;;;;5271014;28;19954;-79
2022/03/31 13:31:02;;;;;;;;;;;18.70;99.90;;;;;;5270438;28;19908;-79
2022/03/31 13:33:33;;;;;;;;;;;18.70;99.90;;;;;;5271205;28;19920;-86
2022/03/31 13:36:04;;;;;;;;;;;18.50;99.90;;;;;;5269541;28;19911;-79
2022/03/31 13:38:36;;;;;;;;;;;18.60;99.90;;;;;;5270668;28;19911;-78
2022/03/31 13:41:06;;;;;;;;;;;18.40;99.90;;;;;;5269363;28;19915;-78
2022/03/31 13:43:37;;;;;;;;;;;18.50;99.90;;;;;;5270564;28;19904;-78
2022/03/31 13:46:08;;;;;;;;;;;18.50;99.90;;;;;;5269861;28;20192;-78
2022/03/31 13:48:38;;;;;;;;;;;18.30;99.90;;;;;;5270755;28;19908;-78
2022/03/31 13:51:09;;;;;;;;;;;18.40;99.90;;;;;;5270680;28;20320;-81
2022/03/31 13:53:45;;;;;;;;;;;18.30;99.90;;;;;;5250562;28;20355;-85
2022/03/31 13:56:16;;;;;;;;;;;18.20;99.90;;;;;;5249190;28;19950;-85
2022/03/31 14:01:38;;;;;;;;;;;18.30;99.90;;;;;;5270253;28;20012;-79
2022/03/31 14:04:08;;;;;;;;;;;18.30;99.90;;;;;;5270454;28;19943;-81
2022/03/31 14:06:39;;;;;;;;;;;18.30;99.90;;;;;;5270276;28;19959;-79
2022/03/31 14:09:13;;;;;;;;;;;18.20;99.90;;;;;;5270416;28;19904;-80
2022/03/31 14:11:43;;;;;;;;;;;18.30;99.90;;;;;;5270092;28;19911;-84
2022/03/31 14:14:15;;;;;;;;;;;18.20;99.90;;;;;;5270179;28;20367;-79
2022/03/31 14:16:48;;;;;;;;;;;18.20;99.90;;;;;;5270046;28;19904;-80
2022/03/31 14:19:20;;;;;;;;;;;18.20;99.90;;;;;;5269959;28;19915;-79
2022/03/31 14:21:52;;;;;;;;;;;18.10;99.90;;;;;;5268552;28;20356;-78
2022/03/31 14:24:23;;;;;;;;;;;18.10;99.90;;;;;;5270531;28;20308;-79
2022/03/31 14:26:53;;;;;;;;;;;18.10;99.90;;;;;;5270252;28;20007;-78
2022/03/31 14:29:24;;;;;;;;;;;18.10;99.90;;;;;;5270121;28;20290;-81
2022/03/31 14:31:55;;;;;;;;;;;18.00;99.90;;;;;;5269584;28;19919;-78
2022/03/31 14:34:26;;;;;;;;;;;18.00;99.90;;;;;;5269893;28;19908;-79
2022/03/31 14:36:56;;;;;;;;;;;18.00;99.90;;;;;;5269899;28;19911;-83
2022/03/31 14:39:27;;;;;;;;;;;17.90;99.90;;;;;;5269872;28;19962;-80
2022/03/31 14:42:02;;;;;;;;;;;17.90;99.90;;;;;;5269677;28;19938;-78
2022/03/31 14:44:33;;;;;;;;;;;17.90;99.90;;;;;;5269740;28;19904;-78
2022/03/31 14:47:05;;;;;;;;;;;17.80;99.90;;;;;;5269738;28;19904;-82
2022/03/31 14:49:36;;;;;;;;;;;17.90;99.90;;;;;;5268426;28;20379;-84
2022/03/31 14:52:06;;;;;;;;;;;17.80;99.90;;;;;;5269505;28;19904;-81